Time;durP1;ratioP1;P1;durP2;ratioP2;P2;SDS_P1;SDS_P2;PMS_P1;PMS_P2;Temp;Humidity;BMP_temperature;BMP_pressure;BME280_temperature;BME280_humidity;BME280_pressure;Samples;Min_cycle;Max_cycle;Signal;HPM_P1;HPM_P2
2023/05/01 00:01:07;;;;;;;8.90;3.80;;;13.80;89.00;;;13.97;56.28;94919.47;4989695;28;20453;-67
2023/05/01 00:03:35;;;;;;;5.10;3.60;;;13.80;89.20;;;13.93;56.41;94926.91;4986629;28;20466;-61
2023/05/01 00:06:06;;;;;;;3.80;3.50;;;13.80;89.50;;;13.92;56.31;94930.53;4982510;28;20520;-68
2023/05/01 00:08:37;;;;;;;5.23;3.87;;;13.70;89.50;;;13.90;56.49;94927.22;4980910;28;20508;-69
2023/05/01 00:11:04;;;;;;;4.17;3.87;;;13.70;89.50;;;13.89;56.58;94922.09;4988967;28;20470;-56
2023/05/01 00:13:32;;;;;;;4.23;3.93;;;13.70;89.80;;;13.87;57.54;94919.59;4987387;28;21146;-57
2023/05/01 00:16:00;;;;;;;4.97;3.70;;;13.70;90.50;;;13.83;57.36;94917.44;4980830;28;21260;-68
2023/05/01 00:18:30;;;;;;;4.27;3.97;;;13.70;90.60;;;13.77;56.62;94927.66;4985922;28;20597;-66
2023/05/01 00:20:57;;;;;;;3.90;3.60;;;13.60;90.40;;;13.74;57.42;94933.28;4987187;28;20475;-56
2023/05/01 00:23:26;;;;;;;4.53;4.13;;;13.60;90.80;;;13.70;57.07;94921.34;4990046;28;20581;-56
2023/05/01 00:25:53;;;;;;;4.40;3.87;;;13.50;90.50;;;13.67;57.22;94928.78;4989685;28;20493;-68
2023/05/01 00:28:21;;;;;;;5.20;4.70;;;13.50;90.70;;;13.62;57.40;94924.78;4993133;28;20487;-66
2023/05/01 00:30:48;;;;;;;4.63;4.30;;;13.50;90.70;;;13.60;57.41;94925.91;4986881;28;20843;-57
2023/05/01 00:33:15;;;;;;;11.10;3.90;;;13.40;91.00;;;13.56;57.09;94928.03;4984083;28;20525;-68
2023/05/01 00:35:44;;;;;;;4.30;4.00;;;13.40;90.90;;;13.52;57.57;94920.59;4987729;28;20848;-69
2023/05/01 00:38:11;;;;;;;6.10;3.80;;;13.40;91.20;;;13.52;58.05;94931.16;4990042;28;20565;-58
2023/05/01 00:40:46;;;;;;;4.50;4.13;;;13.30;91.40;;;13.47;58.09;94922.88;4991611;28;20566;-67
2023/05/01 00:43:13;;;;;;;3.53;3.30;;;13.30;91.50;;;13.42;57.73;94921.53;4986101;28;20486;-68
2023/05/01 00:45:43;;;;;;;4.23;3.93;;;13.30;91.50;;;13.37;57.82;94931.75;4992301;28;20482;-56
2023/05/01 00:48:10;;;;;;;4.93;4.53;;;13.20;91.60;;;13.36;58.04;94942.47;4988104;28;20937;-56
2023/05/01 00:50:37;;;;;;;5.10;4.70;;;13.20;91.70;;;13.32;58.27;94943.72;4985748;28;21027;-66
2023/05/01 00:53:05;;;;;;;7.17;4.23;;;13.20;92.00;;;13.30;58.13;94948.34;4986705;28;21006;-66
2023/05/01 00:55:32;;;;;;;4.53;4.23;;;13.10;92.00;;;13.27;58.04;94949.47;4991771;28;20498;-57
2023/05/01 00:58:01;;;;;;;7.47;4.70;;;13.10;92.20;;;13.23;58.40;94954.22;4986406;28;20485;-68
2023/05/01 01:00:28;;;;;;;4.53;4.13;;;13.10;92.40;;;13.19;58.11;94958.16;4987770;28;20450;-67
2023/05/01 01:02:55;;;;;;;4.87;4.40;;;13.00;92.20;;;13.14;58.65;94956.97;4990356;28;20484;-56
2023/05/01 01:05:24;;;;;;;4.77;4.40;;;13.00;92.70;;;13.08;58.82;94951.31;4985461;28;20458;-66
2023/05/01 01:07:57;;;;;;;4.73;4.33;;;12.90;92.90;;;13.05;59.07;94962.16;4988509;28;20639;-59
2023/05/01 01:10:28;;;;;;;6.80;4.80;;;12.90;93.00;;;13.02;58.79;94956.38;4990410;28;20485;-57
2023/05/01 01:13:04;;;;;;;5.00;4.20;;;12.90;93.20;;;12.97;59.04;94951.56;4983602;28;20511;-68
2023/05/01 01:15:36;;;;;;;4.63;4.27;;;12.80;93.20;;;12.93;59.19;94957.28;4992275;28;20488;-56
2023/05/01 01:18:08;;;;;;;6.90;4.70;;;12.80;93.10;;;12.85;59.03;94961.50;4989090;28;20528;-66
2023/05/01 01:20:38;;;;;;;4.20;3.83;;;12.70;93.30;;;12.78;59.44;94951.69;4989001;28;20465;-57
2023/05/01 01:23:42;;;;;;;5.83;5.23;;;12.70;93.60;;;12.70;59.61;94953.31;4986752;28;20636;-66
2023/05/01 01:26:24;;;;;;;6.80;4.67;;;12.60;93.50;;;12.67;59.57;94960.69;4988453;28;20587;-68
2023/05/01 01:29:24;;;;;;;4.90;4.50;;;12.60;93.60;;;12.63;60.32;94972.53;4981370;28;21019;-66
2023/05/01 01:32:01;;;;;;;5.80;4.50;;;12.50;94.00;;;12.58;59.76;94975.63;4975953;28;20489;-57
2023/05/01 01:34:34;;;;;;;5.03;4.73;;;12.50;94.20;;;12.55;60.70;94974.09;4987385;28;20511;-66
2023/05/01 01:37:03;;;;;;;5.47;4.97;;;12.50;94.60;;;12.52;59.88;94981.50;4984919;28;20486;-57
2023/05/01 01:39:38;;;;;;;7.07;5.40;;;12.40;94.50;;;12.48;59.75;94980.94;4986420;28;20478;-67
2023/05/01 01:42:09;;;;;;;7.73;4.50;;;12.40;94.70;;;12.41;60.05;94973.75;4981918;28;20868;-66
2023/05/01 01:44:40;;;;;;;8.80;4.53;;;12.30;94.80;;;12.40;60.54;94977.41;4989351;28;20660;-67
2023/05/01 01:47:10;;;;;;;4.40;4.00;;;12.30;95.20;;;12.35;60.39;94977.84;4986723;28;20902;-57
2023/05/01 01:49:43;;;;;;;6.67;4.70;;;12.20;95.10;;;12.33;60.67;94972.72;4986071;28;20481;-57
2023/05/01 01:52:11;;;;;;;7.53;4.13;;;12.20;95.50;;;12.30;60.29;94966.88;4977963;28;20501;-67
2023/05/01 01:54:42;;;;;;;5.47;4.87;;;12.20;95.50;;;12.29;60.67;94970.53;4989375;28;20843;-66
2023/05/01 01:57:12;;;;;;;6.47;5.80;;;12.20;95.60;;;12.25;60.53;94969.97;4981138;28;20485;-57
2023/05/01 01:59:40;;;;;;;6.40;4.50;;;12.10;95.90;;;12.23;60.46;94968.47;4987815;28;20470;-56
2023/05/01 02:02:07;;;;;;;5.13;4.43;;;12.10;95.50;;;12.22;61.50;94965.00;4988905;28;21518;-67
2023/05/01 02:04:34;;;;;;;5.43;4.93;;;12.10;96.10;;;12.19;61.47;94960.88;4988667;28;20555;-57
2023/05/01 02:07:03;;;;;;;5.67;4.87;;;12.10;96.30;;;12.16;61.13;94966.44;4986118;28;20552;-56
2023/05/01 02:09:30;;;;;;;4.30;4.10;;;12.00;96.30;;;12.12;61.15;94959.78;4979067;28;20494;-57
2023/05/01 02:11:58;;;;;;;6.23;4.93;;;12.00;96.40;;;12.11;61.51;94958.09;4984279;28;20569;-57
2023/05/01 02:14:26;;;;;;;5.03;4.20;;;12.00;96.60;;;12.09;60.80;94960.06;4985529;28;20561;-55
2023/05/01 02:16:53;;;;;;;18.83;4.50;;;12.00;96.50;;;12.07;61.42;94950.63;4989590;28;20473;-55
2023/05/01 02:19:21;;;;;;;6.30;5.33;;;11.90;96.70;;;12.04;61.63;94946.50;4987940;28;20585;-66
2023/05/01 02:21:48;;;;;;;5.00;4.50;;;11.90;96.90;;;12.01;61.54;94952.91;4987574;28;20503;-55
2023/05/01 02:24:17;;;;;;;6.60;4.77;;;11.90;97.20;;;11.97;61.65;94951.53;4985093;28;21062;-57
2023/05/01 02:26:49;;;;;;;8.13;5.00;;;11.90;97.10;;;11.95;61.62;94952.66;4987217;28;20851;-66
2023/05/01 02:29:16;;;;;;;4.57;3.93;;;11.80;97.00;;;11.92;61.62;94959.03;4986840;28;20481;-56
2023/05/01 02:31:44;;;;;;;5.97;4.30;;;11.80;97.10;;;11.92;62.07;94953.78;4989153;28;20509;-57
2023/05/01 02:34:11;;;;;;;13.80;5.33;;;11.80;97.50;;;11.89;62.09;94959.31;4987731;28;20497;-66
2023/05/01 02:36:39;;;;;;;6.50;5.20;;;11.80;97.70;;;11.89;62.23;94958.47;4985966;28;20482;-67
2023/05/01 02:39:06;;;;;;;5.80;5.20;;;11.80;97.80;;;11.86;62.14;94956.97;4992258;28;20544;-67
2023/05/01 02:41:35;;;;;;;8.10;6.50;;;11.80;97.70;;;11.88;62.19;94962.09;4988777;28;20474;-66
2023/05/01 02:44:03;;;;;;;17.60;6.43;;;11.80;98.00;;;11.87;61.98;94968.31;4981970;28;20560;-67
2023/05/01 02:46:32;;;;;;;5.73;5.20;;;11.70;97.90;;;11.83;62.00;94966.00;4991243;28;20472;-56
2023/05/01 02:49:01;;;;;;;7.23;4.97;;;11.70;97.70;;;11.77;62.25;94971.84;4984056;28;20489;-67
2023/05/01 02:51:28;;;;;;;12.83;6.47;;;11.70;98.00;;;11.71;62.59;94966.31;4987181;28;20458;-57
2023/05/01 02:53:55;;;;;;;10.13;4.93;;;11.60;97.90;;;11.68;62.45;94967.44;4981461;28;20513;-70
2023/05/01 02:56:23;;;;;;;14.00;6.90;;;11.60;98.10;;;11.64;62.76;94968.72;4984979;28;20507;-57
2023/05/01 02:58:52;;;;;;;8.63;7.77;;;11.50;98.20;;;11.61;62.81;94971.63;4986226;28;20560;-57
2023/05/01 03:01:19;;;;;;;7.23;6.53;;;11.50;98.50;;;11.58;62.74;94966.66;4987087;28;20858;-56
2023/05/01 03:03:46;;;;;;;11.40;7.97;;;11.50;98.40;;;11.57;63.25;94972.88;4990093;28;22068;-56
2023/05/01 03:06:14;;;;;;;9.77;5.90;;;11.50;98.70;;;11.54;63.22;94960.00;4987001;28;20478;-66
2023/05/01 03:08:41;;;;;;;8.23;5.70;;;11.40;98.80;;;11.51;62.95;94966.41;4992733;28;20575;-66
2023/05/01 03:11:09;;;;;;;5.93;5.33;;;11.40;98.80;;;11.47;62.76;94960.56;4992585;28;20548;-68
2023/05/01 03:13:36;;;;;;;8.93;5.93;;;11.40;98.60;;;11.43;62.96;94961.84;4990879;28;20636;-57
2023/05/01 03:16:06;;;;;;;5.93;5.43;;;11.30;98.70;;;11.40;63.50;94972.66;4989798;28;20489;-57
2023/05/01 03:18:33;;;;;;;6.57;5.97;;;11.30;98.90;;;11.35;63.27;94977.50;4988704;28;21567;-57
2023/05/01 03:21:01;;;;;;;11.17;6.27;;;11.30;98.80;;;11.34;63.50;94983.75;4987870;28;20975;-67
2023/05/01 03:23:28;;;;;;;10.17;6.40;;;11.20;99.30;;;11.27;63.03;94978.22;4987473;28;21418;-57
2023/05/01 03:25:56;;;;;;;9.80;7.20;;;11.20;98.80;;;11.24;63.15;94975.03;4987527;28;21223;-58
2023/05/01 03:28:23;;;;;;;10.47;7.60;;;11.20;98.80;;;11.21;62.79;94980.59;4988138;28;20488;-68
2023/05/01 03:30:51;;;;;;;11.23;8.90;;;11.10;98.70;;;11.17;62.94;94985.31;4987778;28;20600;-58
2023/05/01 03:33:19;;;;;;;11.70;6.77;;;11.10;98.90;;;11.13;62.84;94986.56;4993320;28;21011;-68
2023/05/01 03:35:46;;;;;;;15.70;6.37;;;11.10;98.80;;;11.07;63.13;94980.03;4990950;28;20575;-58
2023/05/01 03:38:14;;;;;;;6.30;5.70;;;11.00;98.80;;;11.02;62.84;94994.59;4994419;28;20561;-67
2023/05/01 03:40:41;;;;;;;9.90;8.50;;;10.90;98.60;;;10.97;63.30;94984.50;4982723;28;20999;-55
2023/05/01 03:43:09;;;;;;;12.50;9.13;;;10.90;98.90;;;10.97;63.37;94994.19;4991770;28;20585;-56
2023/05/01 03:45:36;;;;;;;20.03;13.50;;;10.90;99.20;;;10.93;63.29;94994.44;4987522;28;20486;-66
2023/05/01 03:48:04;;;;;;;8.97;7.33;;;10.90;99.10;;;10.93;63.57;94993.63;4992584;28;20594;-67
2023/05/01 03:50:33;;;;;;;19.40;15.77;;;10.80;99.20;;;10.92;63.29;95002.47;4990476;28;20474;-67
2023/05/01 03:53:00;;;;;;;18.67;16.50;;;10.80;99.20;;;10.89;63.50;95003.63;4986964;28;20504;-56
2023/05/01 03:55:27;;;;;;;12.27;11.00;;;10.80;99.20;;;10.89;63.47;95014.13;4993232;28;20833;-57
2023/05/01 03:57:55;;;;;;;11.47;8.97;;;10.80;99.40;;;10.89;63.19;95013.28;4991145;28;20537;-56
2023/05/01 04:00:23;;;;;;;9.10;7.37;;;10.80;99.20;;;10.87;63.42;95015.22;4982814;28;20465;-57
2023/05/01 04:02:51;;;;;;;9.20;6.80;;;10.80;99.30;;;10.78;63.09;95009.00;4988767;28;20481;-57
2023/05/01 04:05:20;;;;;;;11.10;7.03;;;10.80;99.10;;;10.70;63.43;95022.00;4987858;28;20485;-58
2023/05/01 04:07:48;;;;;;;9.80;7.33;;;10.70;99.30;;;10.71;63.93;95021.88;4988009;28;20569;-57
2023/05/01 04:10:16;;;;;;;16.10;7.20;;;10.60;99.40;;;10.68;63.65;95016.88;4991679;28;20556;-57
2023/05/01 04:12:43;;;;;;;12.83;8.87;;;10.60;99.80;;;10.65;64.27;95014.53;4991391;28;20482;-66
2023/05/01 04:15:11;;;;;;;15.87;8.53;;;10.60;99.90;;;10.63;64.36;95020.88;4987774;28;20493;-57
2023/05/01 04:17:39;;;;;;;16.73;7.60;;;10.60;99.90;;;10.62;64.53;95017.44;4983111;28;20570;-67
2023/05/01 04:20:07;;;;;;;16.53;8.30;;;10.50;99.90;;;10.62;64.24;95014.78;4991818;28;20842;-65
2023/05/01 04:22:35;;;;;;;16.63;8.20;;;10.60;99.90;;;10.65;64.85;95017.16;4986717;28;20482;-56
2023/05/01 04:25:04;;;;;;;14.93;8.00;;;10.60;99.90;;;10.69;64.61;95021.19;4994009;28;20827;-65
2023/05/01 04:27:31;;;;;;;10.13;7.87;;;10.60;99.90;;;10.77;64.87;95026.59;4991632;28;20471;-55
2023/05/01 04:29:59;;;;;;;13.87;7.07;;;10.60;99.90;;;10.83;64.66;95029.63;4987152;28;20894;-66
2023/05/01 04:32:26;;;;;;;15.50;7.13;;;10.70;99.90;;;10.90;64.99;95025.47;4992601;28;21060;-65
2023/05/01 04:34:53;;;;;;;15.20;7.93;;;10.80;99.90;;;10.97;65.03;95028.38;4987442;28;20593;-57
2023/05/01 04:37:21;;;;;;;9.33;6.67;;;10.80;99.90;;;11.05;64.88;95028.53;4996067;28;20485;-65
2023/05/01 04:39:49;;;;;;;11.00;7.00;;;10.90;99.90;;;11.12;64.49;95037.53;4986447;28;21340;-57
2023/05/01 04:42:18;;;;;;;10.33;5.83;;;11.00;99.90;;;11.19;64.52;95030.75;4991417;28;20535;-57
2023/05/01 04:44:46;;;;;;;7.70;6.30;;;11.00;99.90;;;11.27;64.50;95033.50;4995294;28;20931;-59
2023/05/01 04:47:13;;;;;;;8.67;6.60;;;11.10;99.90;;;11.36;64.69;95029.22;4989364;28;20974;-66
2023/05/01 04:49:41;;;;;;;14.60;6.73;;;11.20;99.90;;;11.44;64.21;95023.25;4990140;28;20481;-58
2023/05/01 04:52:08;;;;;;;6.93;6.23;;;11.30;99.90;;;11.53;64.35;95019.75;4990618;28;20474;-58
2023/05/01 04:54:35;;;;;;;9.60;6.83;;;11.40;99.90;;;11.62;64.20;95031.25;4993189;28;20493;-58
2023/05/01 04:57:03;;;;;;;6.77;6.10;;;11.40;99.90;;;11.71;64.31;95033.03;4982273;28;20473;-72
2023/05/01 04:59:31;;;;;;;15.83;7.13;;;11.50;99.90;;;11.80;64.02;95034.81;4985934;28;20470;-70
2023/05/01 05:01:59;;;;;;;8.47;6.50;;;11.70;99.90;;;11.89;64.33;95034.91;4987571;28;20505;-57
2023/05/01 05:04:26;;;;;;;9.30;6.33;;;11.70;99.90;;;11.97;63.97;95043.78;4986089;28;20469;-58
2023/05/01 05:06:54;;;;;;;13.03;7.77;;;11.80;99.90;;;12.07;64.94;95049.03;4990832;28;20566;-70
2023/05/01 05:09:21;;;;;;;11.33;7.40;;;11.90;99.90;;;12.15;63.79;95043.88;4982971;28;21014;-58
2023/05/01 05:11:48;;;;;;;7.90;7.10;;;12.00;99.90;;;12.24;64.16;95046.59;4986442;28;20946;-68
2023/05/01 05:14:16;;;;;;;11.20;8.10;;;12.10;99.90;;;12.29;64.08;95055.75;4986015;28;20504;-67
2023/05/01 05:16:44;;;;;;;10.00;7.50;;;12.10;99.90;;;12.33;63.91;95062.41;4990736;28;20458;-61
2023/05/01 05:19:12;;;;;;;13.40;7.03;;;12.20;99.90;;;12.39;64.01;95058.31;4986699;28;21016;-56
2023/05/01 05:21:39;;;;;;;10.57;7.40;;;12.20;99.90;;;12.47;63.70;95062.88;4991964;28;20989;-57
2023/05/01 05:24:06;;;;;;;8.30;6.93;;;12.30;99.90;;;12.54;63.53;95064.78;4994410;28;20454;-58
2023/05/01 05:26:34;;;;;;;9.50;6.47;;;12.40;99.90;;;12.68;62.85;95073.19;4987435;28;20485;-57
2023/05/01 05:29:01;;;;;;;17.23;8.57;;;12.50;99.90;;;12.81;63.57;95060.47;4987005;28;20454;-57
2023/05/01 05:31:29;;;;;;;8.20;7.40;;;12.60;99.90;;;12.99;62.69;95072.84;4985744;28;20477;-67
2023/05/01 05:33:57;;;;;;;7.83;7.03;;;12.70;99.90;;;13.18;62.40;95075.34;4983689;28;20630;-57
2023/05/01 05:36:26;;;;;;;16.13;7.03;;;12.90;99.70;;;13.38;61.86;95077.88;4987297;28;20482;-66
2023/05/01 05:38:53;;;;;;;9.03;6.40;;;13.10;99.40;;;13.57;61.71;95072.41;4990026;28;20479;-67
2023/05/01 05:41:20;;;;;;;7.17;6.50;;;13.30;99.30;;;13.77;61.35;95074.88;4988555;28;20546;-59
2023/05/01 05:43:48;;;;;;;21.03;6.70;;;13.50;98.90;;;13.99;60.71;95081.47;4986805;28;20478;-57
2023/05/01 05:46:15;;;;;;;9.53;6.20;;;13.60;98.90;;;14.20;60.33;95077.63;4989385;28;20458;-70
2023/05/01 05:48:42;;;;;;;7.10;5.73;;;13.90;98.60;;;14.44;60.38;95075.09;4987425;28;20482;-56
2023/05/01 05:51:11;;;;;;;9.83;5.50;;;14.10;98.60;;;14.67;59.91;95080.69;4981810;28;21722;-56
2023/05/01 05:53:38;;;;;;;10.90;5.90;;;14.30;98.10;;;14.87;59.47;95080.41;4985160;28;20487;-70
2023/05/01 05:56:07;;;;;;;8.20;5.80;;;14.50;97.70;;;15.10;58.73;95079.81;4985336;28;20493;-57
2023/05/01 05:58:34;;;;;;;7.50;6.67;;;14.70;97.30;;;15.27;58.53;95078.03;4989819;28;20478;-57
2023/05/01 06:01:02;;;;;;;6.93;6.30;;;14.90;96.90;;;15.45;58.28;95081.34;4993967;28;20477;-57
2023/05/01 06:03:29;;;;;;;11.60;6.60;;;15.10;96.80;;;15.68;58.34;95081.53;4988586;28;20501;-58
2023/05/01 06:05:57;;;;;;;10.60;6.07;;;15.30;97.00;;;15.93;57.07;95086.84;4988152;28;20939;-73
2023/05/01 06:08:26;;;;;;;7.90;6.13;;;15.60;96.10;;;16.19;57.19;95086.66;4982818;28;21151;-70
2023/05/01 06:10:53;;;;;;;6.77;6.17;;;15.80;96.20;;;16.43;56.80;95083.09;4984239;28;20466;-71
2023/05/01 06:13:21;;;;;;;9.07;5.70;;;16.00;95.80;;;16.68;56.50;95090.97;4985735;28;20474;-70
2023/05/01 06:15:48;;;;;;;7.63;5.83;;;16.30;95.50;;;16.95;55.99;95092.38;4981380;28;20660;-59
2023/05/01 06:18:15;;;;;;;36.53;10.70;;;16.50;95.20;;;17.22;55.46;95090.22;4984539;28;21088;-57
2023/05/01 06:20:42;;;;;;;13.40;7.27;;;16.80;94.80;;;17.46;55.24;95099.91;4994142;28;20519;-67
2023/05/01 06:23:12;;;;;;;21.27;7.80;;;17.00;94.50;;;17.71;54.84;95089.06;4989036;28;20494;-69
2023/05/01 06:25:41;;;;;;;7.60;6.90;;;17.30;94.20;;;18.01;54.49;95091.84;4989679;28;20488;-59
2023/05/01 06:28:08;;;;;;;14.20;6.30;;;17.60;93.60;;;18.23;53.48;95093.63;4990038;28;20489;-58
2023/05/01 06:30:36;;;;;;;8.37;6.57;;;17.80;93.30;;;18.43;53.27;95093.09;4992796;28;20455;-57
2023/05/01 06:33:03;;;;;;;6.80;6.20;;;18.00;92.90;;;18.58;53.39;95085.09;4992441;28;20520;-58
2023/05/01 06:35:30;;;;;;;8.90;6.10;;;18.10;92.50;;;18.67;52.67;95088.47;4992068;28;20559;-57
2023/05/01 06:37:59;;;;;;;7.70;6.40;;;18.20;92.10;;;18.81;52.82;95093.00;4985039;28;20491;-56
2023/05/01 06:40:26;;;;;;;7.47;5.60;;;18.40;91.70;;;18.98;52.01;95094.47;4990241;28;20458;-73
2023/05/01 06:42:55;;;;;;;9.30;5.40;;;18.50;91.60;;;19.14;51.90;95087.25;4994520;28;20486;-57
2023/05/01 06:45:22;;;;;;;10.63;6.20;;;18.60;91.20;;;19.29;51.77;95090.72;4990095;28;20455;-58
2023/05/01 06:47:49;;;;;;;8.80;6.10;;;18.80;90.90;;;19.47;51.36;95084.13;4992070;28;20490;-74
2023/05/01 06:50:17;;;;;;;18.70;6.00;;;19.00;90.60;;;19.65;50.72;95089.03;4997325;28;20461;-58
2023/05/01 06:52:44;;;;;;;11.70;6.10;;;19.20;90.20;;;19.75;50.63;95094.03;4998405;28;20481;-58
2023/05/01 06:55:12;;;;;;;12.23;5.37;;;19.30;89.20;;;19.83;50.28;95088.59;4995408;28;20487;-69
2023/05/01 06:57:40;;;;;;;8.13;6.70;;;19.40;89.10;;;19.99;49.59;95084.84;4992618;28;20486;-57
2023/05/01 07:00:10;;;;;;;9.57;6.20;;;19.50;87.50;;;20.19;49.86;95085.00;4991774;28;20518;-56
2023/05/01 07:02:39;;;;;;;7.00;6.30;;;19.70;87.80;;;20.40;48.61;95090.28;4995112;28;21096;-57
2023/05/01 07:05:07;;;;;;;6.30;5.80;;;19.90;84.90;;;20.59;49.12;95096.78;4989749;28;20545;-71
2023/05/01 07:07:35;;;;;;;15.20;6.10;;;20.10;85.60;;;20.78;48.81;95094.44;4993958;28;20552;-71
2023/05/01 07:10:02;;;;;;;10.00;5.70;;;20.30;84.70;;;20.92;48.37;95096.16;4993282;28;20961;-72
2023/05/01 07:12:29;;;;;;;6.17;4.90;;;20.40;83.30;;;21.04;48.17;95099.09;4993095;28;20855;-71
2023/05/01 07:14:58;;;;;;;4.87;4.57;;;20.50;82.80;;;21.19;47.83;95106.13;4990147;28;20950;-73
2023/05/01 07:17:28;;;;;;;6.40;5.50;;;20.70;81.80;;;21.21;47.24;95099.56;4989185;28;20481;-58
2023/05/01 07:19:56;;;;;;;7.83;5.40;;;20.70;80.60;;;21.10;47.09;95103.66;4986897;28;20460;-73
2023/05/01 07:22:23;;;;;;;7.33;5.60;;;20.70;79.70;;;21.04;47.24;95106.31;4994596;28;20482;-58
2023/05/01 07:24:50;;;;;;;7.37;4.87;;;20.60;79.50;;;21.11;47.41;95107.94;4992768;28;20461;-72
2023/05/01 07:27:18;;;;;;;5.17;4.67;;;20.60;79.80;;;21.30;47.27;95102.88;4987378;28;20793;-72
2023/05/01 07:29:45;;;;;;;10.93;4.83;;;20.70;79.70;;;21.52;46.57;95110.78;4993254;28;20457;-58
2023/05/01 07:32:13;;;;;;;4.67;4.27;;;20.90;77.70;;;21.78;45.76;95104.66;4989575;28;20559;-58
2023/05/01 07:34:41;;;;;;;6.70;5.27;;;21.20;77.30;;;22.10;45.96;95113.75;4993218;28;20896;-59
2023/05/01 07:37:09;;;;;;;5.53;5.03;;;21.50;77.20;;;22.36;45.88;95104.94;4990573;28;20488;-58
2023/05/01 07:39:36;;;;;;;7.23;5.50;;;21.80;76.40;;;22.60;45.36;95104.50;4993307;28;20950;-57
2023/05/01 07:42:03;;;;;;;6.90;5.80;;;22.00;75.40;;;22.86;44.33;95096.38;4993038;28;21003;-58
2023/05/01 07:44:31;;;;;;;5.60;4.90;;;22.30;74.00;;;23.10;41.61;95099.44;4994131;28;20537;-58
2023/05/01 07:47:04;;;;;;;18.77;4.63;;;22.60;69.40;;;23.23;44.00;95093.19;4992336;28;20483;-73
2023/05/01 07:49:36;;;;;;;5.10;4.40;;;22.70;71.40;;;23.42;43.28;95099.50;4990522;28;20943;-58
2023/05/01 07:52:06;;;;;;;11.43;4.97;;;22.90;70.70;;;23.60;43.35;95096.91;4996921;28;20506;-56
2023/05/01 07:54:33;;;;;;;4.90;4.50;;;23.10;70.00;;;23.75;42.89;95088.56;4999004;28;20488;-70
2023/05/01 07:57:03;;;;;;;8.93;5.93;;;23.20;68.90;;;23.98;42.54;95098.78;4993172;28;20476;-72
2023/05/01 07:59:30;;;;;;;8.97;4.80;;;23.50;69.10;;;24.25;42.77;95089.69;4999056;28;20859;-57
2023/05/01 08:01:57;;;;;;;11.47;4.50;;;23.70;68.40;;;24.51;42.06;95094.00;4991651;28;20471;-73
2023/05/01 08:04:24;;;;;;;4.53;4.00;;;24.00;67.60;;;24.78;41.84;95093.75;4996211;28;20522;-58
2023/05/01 08:06:52;;;;;;;9.37;4.60;;;24.20;66.20;;;24.96;41.55;95098.34;4988992;28;20471;-59
2023/05/01 08:09:21;;;;;;;5.73;3.53;;;24.40;65.00;;;25.15;40.51;95091.06;4996878;28;20457;-72
2023/05/01 08:11:48;;;;;;;4.17;3.83;;;24.60;64.70;;;25.35;40.19;95097.03;4992697;28;20520;-72
2023/05/01 08:14:16;;;;;;;4.13;3.83;;;24.80;63.80;;;25.57;39.88;95094.69;4994715;28;20543;-59
2023/05/01 08:16:43;;;;;;;5.23;4.63;;;25.10;62.50;;;25.75;38.99;95099.19;4994547;28;21321;-73
2023/05/01 08:19:11;;;;;;;7.13;3.77;;;25.20;59.60;;;25.67;38.63;95094.16;4995021;28;20548;-61
2023/05/01 08:21:38;;;;;;;8.87;4.80;;;25.20;60.00;;;25.61;38.67;95095.06;4998767;28;20458;-57
2023/05/01 08:24:09;;;;;;;4.67;4.27;;;25.20;59.40;;;25.55;37.91;95090.59;4992648;28;20470;-73
2023/05/01 08:26:37;;;;;;;21.10;4.50;;;25.10;58.30;;;25.52;38.51;95096.44;4994303;28;20453;-58
2023/05/01 08:29:04;;;;;;;22.37;5.13;;;25.10;58.70;;;25.66;38.63;95091.69;4994692;28;20457;-75
2023/05/01 08:31:32;;;;;;;29.83;5.50;;;25.20;58.80;;;25.86;38.35;95089.50;4993433;28;20457;-73
2023/05/01 08:33:59;;;;;;;71.30;5.80;;;25.30;59.50;;;26.10;38.06;95093.13;4994238;28;20493;-58
2023/05/01 08:36:27;;;;;;;18.27;3.87;;;25.60;57.70;;;26.32;36.62;95094.44;4997037;28;20497;-73
2023/05/01 08:38:54;;;;;;;12.90;3.93;;;25.70;56.00;;;26.47;35.87;95092.91;4995889;28;20469;-73
2023/05/01 08:41:22;;;;;;;14.43;4.43;;;25.90;54.20;;;26.50;35.27;95082.72;4994731;28;20485;-58
2023/05/01 08:43:51;;;;;;;11.57;3.67;;;26.00;53.70;;;26.51;35.38;95082.50;4987881;28;20473;-72
2023/05/01 08:46:25;;;;;;;3.30;3.00;;;26.00;53.80;;;26.54;35.57;95086.56;5005597;28;20918;-73
2023/05/01 08:48:53;;;;;;;7.20;4.90;;;26.10;54.60;;;26.41;35.41;95080.34;4987519;28;20556;-59
2023/05/01 08:51:21;;;;;;;7.17;3.70;;;26.00;53.80;;;26.27;35.95;95081.66;4993096;28;20446;-57
2023/05/01 08:53:51;;;;;;;6.53;3.97;;;25.90;54.00;;;26.28;36.40;95086.00;4998804;28;20588;-73
2023/05/01 08:56:18;;;;;;;29.67;4.40;;;25.80;54.60;;;26.42;36.19;95073.91;4995336;28;20489;-56
2023/05/01 08:58:46;;;;;;;10.83;3.73;;;25.90;54.80;;;26.60;35.69;95074.84;4994768;28;20527;-72
2023/05/01 09:01:15;;;;;;;4.27;3.73;;;26.10;53.40;;;26.65;34.88;95073.13;4997384;28;20465;-58
2023/05/01 09:03:43;;;;;;;9.70;4.03;;;26.10;52.70;;;26.61;35.55;95077.31;4988797;28;20890;-74
2023/05/01 09:06:11;;;;;;;14.13;3.70;;;26.10;53.10;;;26.69;36.00;95078.84;4997246;28;20457;-58
2023/05/01 09:08:39;;;;;;;18.33;3.73;;;26.20;54.00;;;26.73;35.13;95071.94;4989348;28;20468;-56
2023/05/01 09:11:06;;;;;;;6.63;2.70;;;26.30;52.70;;;26.76;33.78;95078.75;4995094;28;20450;-58
2023/05/01 09:13:33;;;;;;;8.97;4.20;;;26.30;51.50;;;26.68;33.08;95076.41;4994784;28;20581;-72
2023/05/01 09:16:01;;;;;;;5.50;4.17;;;26.20;49.20;;;26.59;34.80;95073.22;4991612;28;20496;-57
2023/05/01 09:18:30;;;;;;;20.53;3.27;;;26.10;52.10;;;26.54;34.73;95075.78;4998810;28;20529;-74
2023/05/01 09:20:57;;;;;;;10.40;3.90;;;26.10;51.70;;;26.38;32.41;95069.22;4993192;28;20457;-73
2023/05/01 09:23:24;;;;;;;9.80;2.83;;;25.90;48.70;;;26.20;34.18;95081.75;4996639;28;20619;-72
2023/05/01 09:25:52;;;;;;;4.57;3.37;;;25.80;50.60;;;26.18;34.90;95080.34;4999634;28;20511;-73
2023/05/01 09:28:19;;;;;;;6.80;3.53;;;25.70;52.30;;;26.15;34.78;95086.19;4994061;28;20472;-56
2023/05/01 09:30:46;;;;;;;2.33;2.23;;;25.70;51.90;;;26.02;34.85;95079.97;4988890;28;20451;-58
2023/05/01 09:33:15;;;;;;;3.90;3.60;;;25.60;52.20;;;25.89;34.52;95077.47;4994455;28;20520;-73
2023/05/01 09:35:51;;;;;;;3.30;3.10;;;25.40;51.40;;;25.82;34.69;95077.53;4991500;28;20498;-58
2023/05/01 09:38:20;;;;;;;4.33;3.13;;;25.40;51.50;;;25.71;34.55;95076.47;4992369;28;20466;-73
2023/05/01 09:40:47;;;;;;;9.70;3.60;;;25.30;51.00;;;25.56;33.77;95076.06;4993857;28;20844;-73
2023/05/01 09:43:17;;;;;;;10.23;2.57;;;25.10;50.20;;;25.36;33.44;95071.78;4997819;28;20592;-58
2023/05/01 09:45:45;;;;;;;12.03;2.90;;;25.00;50.50;;;25.25;35.18;95072.50;4991650;28;20849;-57
2023/05/01 09:48:13;;;;;;;3.60;2.77;;;24.80;51.60;;;25.26;34.53;95076.03;4996935;28;21028;-59
2023/05/01 09:50:41;;;;;;;4.80;2.30;;;24.80;51.80;;;25.34;35.51;95068.47;4998556;28;20460;-72
2023/05/01 09:53:11;;;;;;;8.63;2.30;;;24.80;53.00;;;25.51;34.43;95067.84;4995054;28;20497;-71
2023/05/01 09:55:39;;;;;;;3.90;1.70;;;24.90;51.60;;;25.65;34.54;95069.28;4993879;28;20495;-72
2023/05/01 09:58:06;;;;;;;4.23;2.03;;;25.10;51.10;;;25.76;35.01;95070.38;4996702;28;20828;-57
2023/05/01 10:00:34;;;;;;;3.33;2.17;;;25.20;52.30;;;25.76;34.36;95062.28;4993848;28;20986;-58
2023/05/01 10:03:02;;;;;;;2.90;2.23;;;25.30;51.10;;;25.71;34.85;95062.97;4992702;28;21033;-58
2023/05/01 10:05:29;;;;;;;3.20;2.23;;;25.20;51.50;;;25.64;35.13;95059.59;4990158;28;20458;-73
2023/05/01 10:07:57;;;;;;;3.33;3.03;;;25.20;52.60;;;25.60;34.60;95055.69;4992119;28;20548;-58
2023/05/01 10:10:26;;;;;;;2.43;2.23;;;25.20;51.80;;;25.51;35.48;95057.06;4997111;28;20458;-57
2023/05/01 10:12:53;;;;;;;2.30;2.10;;;25.10;52.40;;;25.41;34.85;95055.75;4990355;28;20590;-62
2023/05/01 10:15:21;;;;;;;5.97;2.30;;;25.00;51.90;;;25.36;35.69;95055.63;4994800;28;20562;-73
2023/05/01 10:17:50;;;;;;;3.77;2.20;;;24.90;52.20;;;25.36;34.85;95052.09;4998606;28;20495;-73
2023/05/01 10:20:18;;;;;;;4.80;2.27;;;24.90;51.80;;;25.35;34.97;95056.66;4992939;28;20549;-57
2023/05/01 10:22:47;;;;;;;2.77;2.57;;;24.90;52.10;;;25.33;34.96;95058.75;4992174;28;20467;-57